Time;durP1;ratioP1;P1;durP2;ratioP2;P2;SDS_P1;SDS_P2;PMS_P1;PMS_P2;Temp;Humidity;BMP_temperature;BMP_pressure;BME280_temperature;BME280_humidity;BME280_pressure;Samples;Min_cycle;Max_cycle;Signal;HPM_P1;HPM_P2
2022/10/08 00:01:06;;;;;;;9.07;4.63;;;;;;;12.40;66.54;100897.19;5005857;28;20070;-64
2022/10/08 00:03:36;;;;;;;12.40;5.32;;;;;;;12.38;66.31;100900.84;5007072;28;20566;-64
2022/10/08 00:06:07;;;;;;;14.27;5.53;;;;;;;12.36;67.20;100898.31;5009473;28;20053;-63
2022/10/08 00:08:36;;;;;;;9.88;5.32;;;;;;;12.34;66.61;100899.34;5009117;28;20466;-63
2022/10/08 00:11:08;;;;;;;9.55;4.90;;;;;;;12.30;67.39;100900.50;5008095;28;20072;-62
2022/10/08 00:13:40;;;;;;;12.77;5.80;;;;;;;12.27;67.10;100893.59;5008568;28;20555;-64
2022/10/08 00:16:18;;;;;;;11.25;5.55;;;;;;;12.27;67.63;100905.94;5008424;28;20061;-63
2022/10/08 00:18:46;;;;;;;8.50;4.72;;;;;;;12.12;67.71;100900.66;4989196;28;20108;-63
2022/10/08 00:21:17;;;;;;;11.15;5.20;;;;;;;12.13;67.63;100893.59;4991205;28;20054;-63
2022/10/08 00:23:48;;;;;;;9.15;5.18;;;;;;;12.14;67.96;100885.56;5008140;28;20064;-66
2022/10/08 00:26:17;;;;;;;11.40;5.63;;;;;;;12.13;69.53;100894.44;5004690;28;20293;-64
2022/10/08 00:28:45;;;;;;;9.70;5.40;;;;;;;12.08;68.73;100893.88;5008134;28;20088;-64
2022/10/08 00:31:19;;;;;;;18.13;5.70;;;;;;;12.09;68.27;100892.94;4990527;28;20409;-65
2022/10/08 00:33:50;;;;;;;14.75;6.18;;;;;;;11.94;70.60;100885.13;5013035;28;20060;-64
2022/10/08 00:36:17;;;;;;;7.65;4.72;;;;;;;11.88;69.27;100896.84;4992743;28;20045;-65
2022/10/08 00:38:44;;;;;;;17.35;5.57;;;;;;;11.94;69.41;100893.88;4994210;28;20064;-64
2022/10/08 00:41:20;;;;;;;11.05;5.32;;;;;;;11.92;68.38;100887.81;5016915;28;20057;-66
2022/10/08 00:43:51;;;;;;;12.07;5.60;;;;;;;11.91;69.52;100896.69;5018000;28;20411;-65
2022/10/08 00:46:27;;;;;;;7.75;4.68;;;;;;;11.85;68.61;100900.53;5013393;28;20054;-64
2022/10/08 00:49:02;;;;;;;13.38;5.18;;;;;;;11.87;68.78;100892.53;5014717;28;20517;-65
2022/10/08 00:51:31;;;;;;;11.73;5.05;;;;;;;11.88;69.23;100891.59;4996536;28;20068;-65
2022/10/08 00:54:01;;;;;;;10.13;5.15;;;;;;;11.78;69.35;100891.25;4991858;28;20050;-64
2022/10/08 00:56:30;;;;;;;12.73;5.72;;;;;;;11.76;69.62;100892.31;4993754;28;20062;-64
2022/10/08 00:58:57;;;;;;;11.07;5.70;;;;;;;11.65;69.49;100888.50;5011450;28;20053;-64
2022/10/08 01:01:24;;;;;;;11.27;5.78;;;;;;;11.65;69.82;100885.00;4989921;28;20058;-64
2022/10/08 01:03:51;;;;;;;13.25;6.00;;;;;;;11.69;69.97;100885.69;5000043;28;20077;-63
2022/10/08 01:06:33;;;;;;;12.05;5.55;;;;;;;11.74;70.69;100883.63;5006485;28;20054;-64
2022/10/08 01:09:09;;;;;;;10.77;6.28;;;;;;;11.69;70.19;100877.78;4993792;28;20054;-63
2022/10/08 01:11:46;;;;;;;10.98;6.03;;;;;;;11.63;70.28;100874.56;4993632;28;20049;-63
2022/10/08 01:14:28;;;;;;;12.07;6.03;;;;;;;11.59;70.49;100873.03;4993616;28;20394;-65
2022/10/08 01:17:33;;;;;;;13.07;6.53;;;;;;;11.58;73.10;100868.72;5009810;28;20065;-64
2022/10/08 01:20:10;;;;;;;14.45;7.13;;;;;;;11.42;73.88;100873.19;4934433;29;20055;-63
2022/10/08 01:22:56;;;;;;;10.48;6.20;;;;;;;11.39;73.82;100868.97;4979220;28;20046;-64
2022/10/08 01:25:32;;;;;;;17.85;6.43;;;;;;;11.28;78.00;100868.72;5007470;28;20048;-63
2022/10/08 01:28:08;;;;;;;12.70;6.05;;;;;;;11.14;77.52;100874.78;4976803;28;20046;-62
2022/10/08 01:30:39;;;;;;;9.80;5.97;;;;;;;11.18;76.18;100872.81;5005108;28;20148;-64
2022/10/08 01:33:12;;;;;;;10.73;6.65;;;;;;;11.21;77.15;100866.50;4992570;28;20560;-64
2022/10/08 01:35:44;;;;;;;12.50;5.38;;;;;;;11.16;78.11;100862.34;4993717;28;20057;-64
2022/10/08 01:38:15;;;;;;;14.23;5.85;;;;;;;11.25;76.89;100858.34;4991654;28;20056;-64
2022/10/08 01:40:44;;;;;;;11.68;5.28;;;;;;;11.19;77.72;100855.22;4993579;28;20148;-65
2022/10/08 01:43:14;;;;;;;10.45;4.93;;;;;;;11.18;79.13;100861.44;5009509;28;20054;-65
2022/10/08 01:45:45;;;;;;;14.35;5.47;;;;;;;11.15;79.76;100854.53;4975088;28;20054;-64
2022/10/08 01:48:17;;;;;;;10.55;4.53;;;;;;;11.18;78.85;100851.75;4992469;28;20049;-64
2022/10/08 01:51:02;;;;;;;9.93;5.25;;;;;;;11.13;81.16;100859.06;4976903;28;20079;-65
2022/10/08 01:53:33;;;;;;;10.13;5.60;;;;;;;11.18;79.35;100857.03;4993082;28;20142;-65
2022/10/08 01:56:01;;;;;;;8.88;4.25;;;;;;;11.09;81.11;100858.41;4988570;28;20483;-65
2022/10/08 01:58:53;;;;;;;8.68;5.03;;;;;;;11.07;81.08;100851.50;4976587;28;20667;-64
2022/10/08 02:01:32;;;;;;;9.90;5.03;;;;;;;11.06;82.88;100848.03;5007006;28;20414;-64
2022/10/08 02:06:49;;;;;;;12.13;5.28;;;;;;;11.09;82.09;100836.47;4995005;28;20390;-65
2022/10/08 02:09:17;;;;;;;10.68;4.80;;;;;;;11.07;80.49;100836.53;4992982;28;20054;-65
2022/10/08 02:11:44;;;;;;;10.43;4.40;;;;;;;11.06;80.01;100832.22;4989623;28;20053;-65
2022/10/08 02:14:11;;;;;;;8.80;5.20;;;;;;;11.09;79.08;100831.19;5010147;28;20065;-64
2022/10/08 02:16:42;;;;;;;20.13;5.47;;;;;;;11.06;84.84;100834.84;5008760;28;20068;-64
2022/10/08 02:19:13;;;;;;;9.52;5.47;;;;;;;10.99;82.71;100824.78;4990351;28;20068;-63
2022/10/08 02:21:41;;;;;;;9.65;5.28;;;;;;;10.98;85.70;100821.25;4991322;28;20061;-63
2022/10/08 02:24:18;;;;;;;9.43;4.70;;;;;;;11.01;82.58;100813.19;4992228;28;20395;-65
2022/10/08 02:26:49;;;;;;;10.55;4.75;;;;;;;11.08;81.27;100811.06;5009515;28;20068;-64
2022/10/08 02:29:23;;;;;;;8.88;4.72;;;;;;;11.15;81.24;100812.38;4991909;28;20630;-65
2022/10/08 02:32:01;;;;;;;13.57;5.03;;;;;;;11.20;80.51;100810.34;4992145;28;20061;-64
2022/10/08 02:34:38;;;;;;;14.48;4.93;;;;;;;11.23;81.20;100817.22;4992407;28;20050;-65
2022/10/08 02:37:07;;;;;;;16.40;5.55;;;;;;;11.19;82.28;100818.34;5004679;28;20064;-64
2022/10/08 02:39:37;;;;;;;9.98;5.38;;;;;;;11.14;82.51;100813.34;4993243;28;20054;-64
2022/10/08 02:42:07;;;;;;;9.32;5.10;;;;;;;11.09;83.23;100816.25;4992309;28;20046;-64
2022/10/08 02:44:41;;;;;;;10.15;5.22;;;;;;;11.12;82.80;100815.19;4986200;28;20058;-62
2022/10/08 02:47:12;;;;;;;10.48;5.18;;;;;;;11.15;83.23;100823.78;4990355;28;20042;-64
2022/10/08 02:49:42;;;;;;;8.30;4.93;;;;;;;11.12;81.94;100828.38;4992194;28;20069;-65
2022/10/08 02:52:09;;;;;;;8.60;5.05;;;;;;;11.15;82.42;100830.84;4991664;28;20060;-63
2022/10/08 02:54:38;;;;;;;9.48;5.13;;;;;;;11.19;82.82;100831.50;4990595;28;20544;-65
2022/10/08 02:57:16;;;;;;;10.85;4.97;;;;;;;11.15;82.09;100836.09;5008258;28;20054;-63
2022/10/08 02:59:44;;;;;;;11.57;5.72;;;;;;;11.14;83.80;100829.16;4975087;28;20049;-65
2022/10/08 03:02:18;;;;;;;7.43;4.82;;;;;;;11.11;83.32;100829.31;4989464;28;20046;-64
2022/10/08 03:04:51;;;;;;;14.80;6.38;;;;;;;11.11;86.72;100837.22;4990410;28;20529;-64
2022/10/08 03:07:21;;;;;;;12.88;5.82;;;;;;;11.02;87.58;100830.69;4990727;28;20526;-62
2022/10/08 03:09:50;;;;;;;13.63;5.65;;;;;;;10.99;87.16;100825.63;4991954;28;20046;-64
2022/10/08 03:12:17;;;;;;;12.63;5.30;;;;;;;11.00;85.33;100832.56;4988755;28;20065;-65
2022/10/08 03:14:46;;;;;;;8.23;4.60;;;;;;;11.09;84.55;100834.69;5008430;28;20148;-63
2022/10/08 03:17:18;;;;;;;7.45;4.97;;;;;;;11.07;86.64;100831.25;4990535;28;20060;-65
2022/10/08 03:19:45;;;;;;;12.57;5.60;;;;;;;11.05;84.76;100825.25;5009329;28;20061;-65
2022/10/08 03:22:12;;;;;;;15.10;5.95;;;;;;;11.06;85.85;100832.22;4998730;28;20061;-63
2022/10/08 03:24:39;;;;;;;11.88;5.57;;;;;;;11.03;85.61;100832.41;4995481;28;20049;-64
2022/10/08 03:27:07;;;;;;;10.73;5.60;;;;;;;11.05;87.03;100829.69;5007776;28;20541;-64
2022/10/08 03:29:34;;;;;;;13.32;5.93;;;;;;;11.03;86.95;100837.69;4974930;28;20042;-64
2022/10/08 03:32:01;;;;;;;15.23;5.70;;;;;;;10.98;86.12;100831.81;5007994;28;20041;-65
2022/10/08 03:34:28;;;;;;;9.38;4.78;;;;;;;11.06;84.63;100842.75;4991326;28;20056;-64
2022/10/08 03:36:55;;;;;;;7.70;5.22;;;;;;;11.12;84.03;100838.91;5008034;28;20049;-64
2022/10/08 03:39:22;;;;;;;13.45;5.78;;;;;;;11.11;84.01;100832.78;5003790;28;20050;-63
2022/10/08 03:41:50;;;;;;;16.15;6.10;;;;;;;11.10;84.95;100833.75;4975386;28;20042;-64
2022/10/08 03:44:17;;;;;;;10.63;5.45;;;;;;;11.05;85.14;100829.69;5005361;28;20046;-65
2022/10/08 03:46:44;;;;;;;17.02;6.25;;;;;;;11.03;88.84;100832.41;4973570;28;20042;-64
2022/10/08 03:49:11;;;;;;;9.98;5.38;;;;;;;11.01;86.09;100834.25;4989960;28;20422;-64
2022/10/08 03:51:38;;;;;;;12.43;4.80;;;;;;;11.00;85.61;100831.72;5008604;28;20062;-64
2022/10/08 03:54:05;;;;;;;15.00;6.18;;;;;;;11.01;87.13;100826.38;4991674;28;20053;-64
2022/10/08 03:56:33;;;;;;;11.23;6.20;;;;;;;10.99;85.41;100828.25;5006204;28;20448;-65
2022/10/08 03:59:02;;;;;;;8.60;5.00;;;;;;;11.02;86.07;100829.84;4981347;28;20054;-65
2022/10/08 04:01:29;;;;;;;9.82;5.40;;;;;;;11.09;85.17;100825.94;5006145;28;20052;-65
2022/10/08 04:03:56;;;;;;;10.40;5.78;;;;;;;11.10;85.33;100819.72;5008275;28;20108;-64
2022/10/08 04:06:24;;;;;;;16.95;6.43;;;;;;;11.13;86.61;100822.19;5007496;28;20384;-64
2022/10/08 04:09:15;;;;;;;8.85;5.70;;;;;;;11.13;86.64;100816.91;5012131;28;20045;-64
2022/10/08 04:11:43;;;;;;;8.90;5.18;;;;;;;11.11;86.14;100816.13;4970225;28;20063;-63
2022/10/08 04:14:10;;;;;;;9.93;5.47;;;;;;;11.10;85.12;100815.28;4971285;28;20155;-63
2022/10/08 04:16:37;;;;;;;14.90;5.53;;;;;;;11.14;85.26;100819.44;4971630;28;20069;-63
2022/10/08 04:19:04;;;;;;;12.27;5.38;;;;;;;11.20;84.38;100814.75;4973801;28;20430;-64
2022/10/08 04:21:31;;;;;;;8.63;4.28;;;;;;;11.25;83.24;100815.34;4974487;28;20047;-62
2022/10/08 04:23:58;;;;;;;8.07;4.60;;;;;;;11.29;82.43;100812.44;4983257;28;20150;-63
2022/10/08 04:26:25;;;;;;;10.68;4.13;;;;;;;11.33;80.90;100818.38;4974279;28;20055;-61
2022/10/08 04:28:53;;;;;;;8.30;5.53;;;;;;;11.35;80.73;100827.91;4972765;28;20043;-63
2022/10/08 04:31:23;;;;;;;10.35;5.35;;;;;;;11.30;81.27;100829.97;4973756;28;20507;-64
2022/10/08 04:33:50;;;;;;;9.68;4.93;;;;;;;11.30;80.74;100826.44;4974024;28;20054;-60
2022/10/08 04:36:19;;;;;;;14.88;5.57;;;;;;;11.32;81.98;100828.06;4973535;28;20049;-62
2022/10/08 04:38:47;;;;;;;10.90;4.55;;;;;;;11.29;81.67;100822.13;4973613;28;20051;-63
2022/10/08 04:41:24;;;;;;;8.52;4.50;;;;;;;11.30;81.04;100824.69;4970109;28;20070;-62
2022/10/08 04:43:53;;;;;;;11.23;5.53;;;;;;;11.34;81.98;100830.59;4974864;28;20526;-63
2022/10/08 04:46:21;;;;;;;11.13;4.68;;;;;;;11.30;81.93;100822.06;4968784;28;20053;-63
2022/10/08 04:48:53;;;;;;;8.38;5.07;;;;;;;11.28;83.17;100826.56;4973381;28;20462;-62
2022/10/08 04:51:22;;;;;;;10.18;5.13;;;;;;;11.29;82.04;100822.97;4971694;28;20101;-64
2022/10/08 04:53:50;;;;;;;8.75;4.90;;;;;;;11.30;81.18;100823.81;4973349;28;20046;-63
2022/10/08 04:56:19;;;;;;;8.77;5.05;;;;;;;11.26;82.36;100822.31;4975053;28;20084;-63
2022/10/08 04:58:46;;;;;;;12.98;4.68;;;;;;;11.22;82.10;100826.06;4973889;28;20073;-62
2022/10/08 05:01:15;;;;;;;10.55;4.18;;;;;;;11.21;80.91;100814.66;4975776;28;20065;-61
2022/10/08 05:03:46;;;;;;;9.60;4.60;;;;;;;11.25;79.91;100826.72;4983037;28;20084;-64
2022/10/08 05:06:15;;;;;;;9.57;4.63;;;;;;;11.29;79.76;100830.03;4992602;28;20054;-62
2022/10/08 05:08:43;;;;;;;8.60;4.35;;;;;;;11.32;79.21;100825.44;4975446;28;20446;-61
2022/10/08 05:11:10;;;;;;;10.65;5.00;;;;;;;11.33;81.22;100829.75;4978791;28;20055;-62
2022/10/08 05:13:37;;;;;;;10.63;5.03;;;;;;;11.29;80.36;100832.66;4974010;28;20069;-63
2022/10/08 05:16:10;;;;;;;6.38;4.50;;;;;;;11.25;80.45;100825.88;4972590;28;20074;-63
2022/10/08 05:18:38;;;;;;;12.05;5.70;;;;;;;11.23;80.41;100830.41;4978326;28;20564;-62
2022/10/08 05:21:07;;;;;;;12.23;4.72;;;;;;;11.25;79.49;100831.13;4981275;28;20499;-62
2022/10/08 05:23:35;;;;;;;11.13;4.70;;;;;;;11.27;79.11;100829.28;4979354;28;20050;-62
2022/10/08 05:26:16;;;;;;;9.73;4.85;;;;;;;11.28;79.13;100826.56;4970482;28;20047;-62
2022/10/08 05:28:45;;;;;;;7.38;3.92;;;;;;;11.29;78.65;100822.13;4981375;28;20050;-63
2022/10/08 05:31:14;;;;;;;7.40;3.97;;;;;;;11.31;78.55;100830.81;4977732;28;20052;-63
2022/10/08 05:33:41;;;;;;;14.35;4.20;;;;;;;11.32;77.95;100833.34;4966674;28;20055;-62
2022/10/08 05:36:14;;;;;;;10.68;5.10;;;;;;;11.32;78.04;100835.13;4979395;28;20054;-63
2022/10/08 05:38:45;;;;;;;7.80;4.18;;;;;;;11.33;77.91;100828.91;4975680;28;20051;-62
2022/10/08 05:41:23;;;;;;;9.23;5.07;;;;;;;11.39;78.03;100836.44;4971179;28;20058;-62
2022/10/08 05:43:52;;;;;;;6.55;4.32;;;;;;;11.39;79.28;100839.09;4974267;28;20408;-62
2022/10/08 05:46:21;;;;;;;12.43;5.00;;;;;;;11.34;79.12;100833.25;4977051;28;20055;-63
2022/10/08 05:48:51;;;;;;;9.45;4.40;;;;;;;11.29;80.98;100835.31;4991741;28;20062;-63
2022/10/08 05:51:19;;;;;;;10.02;4.53;;;;;;;11.26;80.05;100825.81;4976377;28;20038;-63
2022/10/08 05:53:47;;;;;;;11.35;4.68;;;;;;;11.27;80.60;100829.28;4981960;28;20058;-63
2022/10/08 05:56:17;;;;;;;8.00;5.03;;;;;;;11.22;81.25;100832.19;4980735;28;20058;-62
2022/10/08 05:58:44;;;;;;;9.27;4.70;;;;;;;11.19;80.76;100832.34;4981929;28;20055;-63
2022/10/08 06:01:19;;;;;;;12.68;4.45;;;;;;;11.24;80.69;100840.00;4979445;28;20046;-62
2022/10/08 06:03:57;;;;;;;10.63;4.65;;;;;;;11.28;81.64;100842.38;4977892;28;20081;-61
2022/10/08 06:06:25;;;;;;;13.80;5.30;;;;;;;11.21;83.51;100841.00;4974034;28;20415;-62
2022/10/08 06:08:53;;;;;;;6.88;4.30;;;;;;;11.20;81.40;100841.94;4980916;28;20462;-63
2022/10/08 06:11:20;;;;;;;9.98;4.90;;;;;;;11.22;82.35;100832.19;4978682;28;20058;-62
2022/10/08 06:13:51;;;;;;;13.70;4.85;;;;;;;11.23;82.00;100835.66;4972185;28;20395;-63
2022/10/08 06:16:18;;;;;;;10.00;4.68;;;;;;;11.21;82.28;100834.88;4971291;28;20050;-63
2022/10/08 06:18:45;;;;;;;9.00;4.60;;;;;;;11.23;81.29;100843.56;4983054;28;20060;-62
2022/10/08 06:21:16;;;;;;;9.52;4.63;;;;;;;11.27;80.08;100840.66;4976523;28;20042;-62
2022/10/08 06:23:54;;;;;;;10.93;4.70;;;;;;;11.30;80.19;100844.91;4984891;28;20082;-62
2022/10/08 06:26:25;;;;;;;10.45;4.28;;;;;;;11.31;79.87;100854.53;4978779;28;20078;-61
2022/10/08 06:28:52;;;;;;;12.48;5.55;;;;;;;11.27;80.88;100851.22;4974218;28;20131;-63
2022/10/08 06:31:19;;;;;;;8.57;4.97;;;;;;;11.29;81.19;100853.75;4992575;28;20050;-61
2022/10/08 06:33:47;;;;;;;8.60;5.03;;;;;;;11.26;81.63;100857.44;4979320;28;20129;-61
2022/10/08 06:36:19;;;;;;;13.57;5.30;;;;;;;11.26;83.43;100860.06;4981185;28;20054;-62
2022/10/08 06:38:49;;;;;;;17.13;5.80;;;;;;;11.22;86.33;100865.59;4968885;28;20066;-66
2022/10/08 06:41:17;;;;;;;9.80;5.22;;;;;;;11.21;83.64;100866.50;4980120;28;21104;-62
2022/10/08 06:43:44;;;;;;;10.55;5.25;;;;;;;11.22;83.45;100865.59;4978518;28;20050;-63
2022/10/08 06:46:11;;;;;;;7.85;4.25;;;;;;;11.25;83.06;100874.16;4980229;28;20059;-61
2022/10/08 06:48:39;;;;;;;8.75;4.53;;;;;;;11.27;83.87;100867.03;4981289;28;20054;-61
2022/10/08 06:51:11;;;;;;;20.33;7.35;;;;;;;11.25;85.11;100868.03;4972747;28;20139;-63
2022/10/08 06:53:39;;;;;;;11.65;5.78;;;;;;;11.22;86.95;100863.81;4983108;28;20062;-62
2022/10/08 06:56:13;;;;;;;12.18;4.90;;;;;;;11.23;84.71;100869.94;4968914;28;20661;-62
2022/10/08 06:58:42;;;;;;;9.20;4.60;;;;;;;11.26;83.85;100867.97;4966395;28;20066;-63
2022/10/08 07:01:11;;;;;;;9.35;4.90;;;;;;;11.34;83.62;100870.13;4972848;28;20074;-63
2022/10/08 07:03:39;;;;;;;9.50;4.65;;;;;;;11.36;84.52;100870.91;4974764;28;20043;-61
2022/10/08 07:06:08;;;;;;;14.27;5.15;;;;;;;11.41;83.04;100874.13;4973346;28;20047;-60
2022/10/08 07:08:35;;;;;;;8.63;5.43;;;;;;;11.44;86.09;100873.09;4970454;28;20050;-63
2022/10/08 07:11:13;;;;;;;15.00;6.40;;;;;;;11.50;86.32;100867.47;4971280;28;20043;-61
2022/10/08 07:13:41;;;;;;;14.13;5.43;;;;;;;11.47;86.77;100876.41;4969935;28;20077;-60
2022/10/08 07:16:10;;;;;;;13.95;6.22;;;;;;;11.47;87.14;100867.66;4975175;28;20057;-62
2022/10/08 07:18:43;;;;;;;13.63;5.47;;;;;;;11.53;85.95;100872.56;4969803;28;20059;-63
2022/10/08 07:21:12;;;;;;;11.52;5.40;;;;;;;11.58;85.42;100878.41;4987384;28;20051;-61
2022/10/08 07:23:40;;;;;;;15.32;6.93;;;;;;;11.57;85.54;100884.59;4969189;28;20133;-62
2022/10/08 07:26:13;;;;;;;9.07;4.88;;;;;;;11.64;84.72;100886.81;4974884;28;20065;-62
2022/10/08 07:28:43;;;;;;;17.13;6.00;;;;;;;11.66;87.71;100894.63;4971932;28;20043;-62
2022/10/08 07:31:13;;;;;;;13.82;6.15;;;;;;;11.63;88.70;100903.56;4957343;28;20051;-62
2022/10/08 07:33:41;;;;;;;17.10;6.85;;;;;;;11.67;87.55;100906.88;4969882;28;20053;-60
2022/10/08 07:36:13;;;;;;;11.25;6.60;;;;;;;11.78;86.79;100895.69;4975215;28;20057;-63
2022/10/08 07:38:41;;;;;;;8.43;5.15;;;;;;;11.80;87.80;100896.47;4984519;28;20549;-61
2022/10/08 07:41:09;;;;;;;13.07;6.05;;;;;;;11.86;87.23;100902.25;4973299;28;20054;-62
2022/10/08 07:43:40;;;;;;;15.48;4.95;;;;;;;11.94;87.22;100904.44;4970001;28;20055;-61
2022/10/08 07:46:08;;;;;;;12.93;5.78;;;;;;;11.92;87.52;100903.66;4971793;28;20081;-60
2022/10/08 07:48:36;;;;;;;11.32;5.45;;;;;;;11.97;87.01;100908.66;4971302;28;20427;-61
2022/10/08 07:51:16;;;;;;;13.05;4.57;;;;;;;12.01;87.74;100895.19;4969511;28;20150;-61
2022/10/08 07:53:44;;;;;;;12.63;4.95;;;;;;;12.04;87.43;100900.28;4969765;28;20093;-62
2022/10/08 07:56:13;;;;;;;16.38;6.22;;;;;;;12.10;86.52;100899.06;4971129;28;20055;-62
2022/10/08 07:58:40;;;;;;;8.48;4.45;;;;;;;12.21;85.84;100909.81;4967623;28;20091;-62
2022/10/08 08:01:11;;;;;;;11.93;4.05;;;;;;;12.29;85.39;100904.03;4965426;28;20548;-63
2022/10/08 08:03:38;;;;;;;11.25;4.43;;;;;;;12.41;84.59;100904.16;4964482;28;20650;-62
2022/10/08 08:06:13;;;;;;;16.17;4.90;;;;;;;12.47;84.01;100897.63;4967167;28;20057;-62
2022/10/08 08:08:42;;;;;;;10.75;3.95;;;;;;;12.57;83.77;100898.78;4969922;28;20077;-63
2022/10/08 08:11:11;;;;;;;20.20;4.38;;;;;;;12.69;82.91;100902.41;4966492;28;20062;-61
2022/10/08 08:13:39;;;;;;;9.65;3.63;;;;;;;12.74;82.81;100910.03;4968031;28;20514;-63
2022/10/08 08:16:09;;;;;;;15.27;4.10;;;;;;;12.77;82.50;100912.50;4964230;28;20059;-64
2022/10/08 08:18:39;;;;;;;12.05;3.65;;;;;;;12.95;81.15;100908.69;4968569;28;20670;-63
2022/10/08 08:21:14;;;;;;;14.63;3.90;;;;;;;12.97;80.83;100908.56;4969636;28;20058;-64
2022/10/08 08:23:46;;;;;;;11.35;3.58;;;;;;;13.06;80.17;100911.50;4966591;28;20082;-64
2022/10/08 08:26:16;;;;;;;16.08;3.60;;;;;;;13.10;80.01;100918.28;4968760;28;20055;-63
2022/10/08 08:28:43;;;;;;;11.88;3.45;;;;;;;13.18;79.92;100913.31;4971406;28;20050;-63
2022/10/08 08:31:15;;;;;;;9.88;3.40;;;;;;;13.28;79.80;100910.94;4970260;28;20051;-60
2022/10/08 08:33:47;;;;;;;13.27;2.97;;;;;;;13.35;79.20;100911.41;4969355;28;20764;-63
2022/10/08 08:36:14;;;;;;;26.25;3.45;;;;;;;13.45;78.94;100914.28;4969187;28;20066;-63
2022/10/08 08:38:41;;;;;;;7.57;2.65;;;;;;;13.55;77.47;100913.56;4971019;28;20047;-64
2022/10/08 08:41:32;;;;;;;9.40;3.13;;;;;;;13.64;77.04;100912.97;4967556;28;20057;-63
2022/10/08 08:44:02;;;;;;;20.52;3.63;;;;;;;13.83;75.88;100914.38;4968666;28;20542;-61
2022/10/08 08:46:32;;;;;;;11.05;3.00;;;;;;;13.94;75.63;100912.69;4989076;28;20066;-62
2022/10/08 08:49:04;;;;;;;17.33;3.00;;;;;;;13.99;75.32;100917.66;4965381;28;20047;-62
2022/10/08 08:51:31;;;;;;;13.10;3.40;;;;;;;14.02;74.98;100914.81;4991117;28;20141;-62
2022/10/08 08:53:58;;;;;;;13.80;3.65;;;;;;;14.03;75.24;100929.72;4974421;28;20047;-62
2022/10/08 08:56:26;;;;;;;11.40;3.80;;;;;;;14.07;74.57;100919.78;4979143;28;20990;-62
2022/10/08 08:59:12;;;;;;;15.10;2.83;;;;;;;14.04;75.59;100920.84;4978193;28;20518;-62
2022/10/08 09:01:42;;;;;;;12.02;3.67;;;;;;;14.13;75.36;100922.84;4982011;28;20057;-62
2022/10/08 09:04:50;;;;;;;12.27;2.90;;;;;;;14.29;74.62;100933.25;5005483;28;20066;-62
2022/10/08 09:07:22;;;;;;;19.65;3.58;;;;;;;14.46;74.33;100923.28;4950376;28;20095;-63
2022/10/08 09:09:53;;;;;;;21.65;3.70;;;;;;;14.46;73.84;100942.66;4976507;28;20081;-64
2022/10/08 09:12:38;;;;;;;16.13;3.90;;;;;;;14.49;74.21;100928.38;4982925;28;20042;-62
2022/10/08 09:15:16;;;;;;;11.13;3.37;;;;;;;14.54;74.13;100939.47;4978224;28;20065;-61
2022/10/08 09:17:43;;;;;;;13.48;3.67;;;;;;;14.59;73.61;100945.31;4981908;28;20465;-62
2022/10/08 09:20:15;;;;;;;17.35;3.60;;;;;;;14.51;74.54;100943.22;4996480;28;20388;-63
2022/10/08 09:22:44;;;;;;;14.68;3.28;;;;;;;14.56;74.88;100949.03;4979401;28;20504;-63
2022/10/08 09:25:18;;;;;;;16.92;4.05;;;;;;;14.78;74.13;100934.28;4988350;28;20074;-63
2022/10/08 09:27:47;;;;;;;18.20;4.47;;;;;;;14.82;73.31;100933.09;4970080;28;20047;-63
2022/10/08 09:30:23;;;;;;;15.48;3.20;;;;;;;14.88;72.78;100927.34;4972717;28;20058;-62
2022/10/08 09:32:55;;;;;;;19.33;4.55;;;;;;;14.89;73.10;100944.94;4977814;28;20061;-63
2022/10/08 09:35:23;;;;;;;16.88;3.90;;;;;;;14.94;72.76;100943.63;4980804;28;20399;-62
2022/10/08 09:37:51;;;;;;;14.63;3.88;;;;;;;14.89;71.81;100950.22;4980162;28;20055;-63
2022/10/08 09:40:23;;;;;;;14.05;4.40;;;;;;;14.80;72.57;100957.03;4976136;28;20050;-63
2022/10/08 09:43:29;;;;;;;11.20;3.53;;;;;;;14.80;73.13;100958.84;4974044;28;20080;-63
2022/10/08 09:45:57;;;;;;;17.67;3.53;;;;;;;14.80;73.10;100954.38;4944472;28;20066;-60
2022/10/08 09:48:28;;;;;;;12.93;3.35;;;;;;;14.77;72.96;100961.69;4944766;28;20498;-61
2022/10/08 09:51:01;;;;;;;16.25;4.65;;;;;;;14.65;73.59;100958.97;4947653;28;20055;-62
2022/10/08 09:53:41;;;;;;;16.15;4.32;;;;;;;14.69;73.98;100960.47;4964531;28;20063;-62
2022/10/08 09:56:09;;;;;;;12.15;4.22;;;;;;;14.78;73.97;100961.63;4996098;28;20054;-62
2022/10/08 09:58:50;;;;;;;14.07;3.40;;;;;;;14.89;73.90;100960.84;4978114;28;20054;-62
2022/10/08 10:01:18;;;;;;;8.88;3.33;;;;;;;14.93;73.48;100962.31;4973516;28;20046;-63
2022/10/08 10:03:57;;;;;;;14.93;4.78;;;;;;;14.93;73.21;100960.50;4971551;28;20134;-62
2022/10/08 10:06:38;;;;;;;13.65;4.20;;;;;;;14.91;72.96;100972.19;4967552;28;20062;-61
2022/10/08 10:09:24;;;;;;;12.52;3.97;;;;;;;14.96;73.18;100966.56;4966667;28;20047;-62
2022/10/08 10:12:04;;;;;;;14.90;4.15;;;;;;;15.06;73.07;100968.44;4977057;28;20042;-62
2022/10/08 10:14:42;;;;;;;21.45;4.88;;;;;;;15.10;72.69;100966.41;4967177;28;20058;-62
2022/10/08 10:17:18;;;;;;;11.88;3.10;;;;;;;15.07;71.70;100954.22;4969814;28;20165;-62
2022/10/08 10:19:46;;;;;;;;;;;;;;;15.16;71.10;100964.16;4975096;28;20047;-63
2022/10/08 10:22:18;;;;;;;16.25;3.42;;;;;;;15.10;71.48;100963.75;4976705;28;19929;-62
2022/10/08 10:24:54;;;;;;;10.68;3.35;;;;;;;15.19;70.79;100969.25;4984663;28;20096;-61
2022/10/08 10:27:21;;;;;;;11.60;3.05;;;;;;;15.17;71.36;100972.94;4974079;28;20050;-60
2022/10/08 10:30:11;;;;;;;11.73;2.83;;;;;;;15.12;71.94;100980.38;4977782;28;20538;-63
2022/10/08 10:32:50;;;;;;;12.90;3.88;;;;;;;15.07;71.78;100962.16;4973257;28;20058;-62
2022/10/08 10:35:24;;;;;;;14.25;3.75;;;;;;;15.05;71.50;100974.69;4973544;28;20051;-62
2022/10/08 10:37:59;;;;;;;15.38;3.75;;;;;;;14.99;71.62;100985.72;4977182;28;20624;-62
2022/10/08 10:40:30;;;;;;;13.20;3.63;;;;;;;14.93;72.25;100988.81;4969404;28;20141;-63
2022/10/08 10:43:32;;;;;;;12.77;3.30;;;;;;;14.91;72.11;100983.63;4972479;28;20356;-62
2022/10/08 10:46:10;;;;;;;8.43;3.55;;;;;;;14.88;72.41;100967.09;4975138;28;20142;-62
2022/10/08 10:48:38;;;;;;;12.20;3.90;;;;;;;14.98;72.21;100972.59;4971885;28;20054;-61
2022/10/08 10:51:22;;;;;;;10.00;3.30;;;;;;;14.91;71.87;100981.00;4975158;28;20145;-61
2022/10/08 10:54:10;;;;;;;15.80;3.85;;;;;;;14.86;72.15;100977.81;4975546;28;20496;-61
2022/10/08 10:56:43;;;;;;;11.70;2.85;;;;;;;14.90;72.32;100974.00;4970740;28;20599;-61
2022/10/08 11:00:12;;;;;;;13.90;2.95;;;;;;;14.84;71.75;100990.31;4993894;28;20121;-59
2022/10/08 11:02:45;;;;;;;10.90;4.10;;;;;;;14.75;72.12;100996.28;4955315;28;20051;-61
2022/10/08 11:05:17;;;;;;;8.55;2.70;;;;;;;14.72;72.58;100979.75;4935295;28;20064;-61
2022/10/08 11:07:53;;;;;;;12.90;3.50;;;;;;;14.69;72.68;100981.66;4967238;28;20088;-62
2022/10/08 11:10:45;;;;;;;11.18;3.72;;;;;;;14.71;72.80;100978.06;4988058;28;20050;-62
2022/10/08 11:13:34;;;;;;;10.73;3.10;;;;;;;14.72;73.00;100980.59;4973190;28;20063;-61
2022/10/08 11:16:39;;;;;;;7.53;3.55;;;;;;;14.73;72.88;100984.94;4983509;28;20065;-61
2022/10/08 11:19:22;;;;;;;12.63;3.92;;;;;;;14.67;72.82;100988.00;4954816;28;20046;-61
2022/10/08 11:22:06;;;;;;;12.73;3.35;;;;;;;14.58;73.26;100981.56;4978920;28;20055;-59
2022/10/08 11:24:55;;;;;;;16.35;3.45;;;;;;;14.53;73.25;100983.69;4976542;28;20114;-61
2022/10/08 11:27:48;;;;;;;14.20;3.50;;;;;;;14.54;73.45;100988.00;4969877;28;20062;-61
2022/10/08 11:30:22;;;;;;;14.02;3.90;;;;;;;14.53;73.55;100988.97;4967093;28;20058;-59
2022/10/08 11:32:52;;;;;;;17.63;3.92;;;;;;;14.49;74.19;100984.00;4970881;28;20648;-61
2022/10/08 11:35:26;;;;;;;11.27;3.13;;;;;;;14.44;75.50;101001.03;4950779;28;20055;-61
2022/10/08 11:37:58;;;;;;;12.32;3.55;;;;;;;14.35;77.60;101014.06;4990692;28;20050;-60
2022/10/08 11:40:45;;;;;;;11.48;3.13;;;;;;;14.25;80.00;100995.31;4968371;28;20154;-62
2022/10/08 11:43:18;;;;;;;11.55;3.75;;;;;;;14.21;81.71;101006.22;4970359;28;22076;-62
2022/10/08 11:45:48;;;;;;;14.43;4.00;;;;;;;14.06;83.77;101002.81;4966160;28;20058;-62